Time;durP1;ratioP1;P1;durP2;ratioP2;P2;SDS_P1;SDS_P2;PMS_P1;PMS_P2;Temp;Humidity;BMP_temperature;BMP_pressure;BME280_temperature;BME280_humidity;BME280_pressure;Samples;Min_cycle;Max_cycle;Signal;HPM_P1;HPM_P2
2022/07/08 00:01:34;;;;;;;3.42;2.00;;;15.30;99.90;;;;;;5028195;28;20038;-83
2022/07/08 00:04:00;;;;;;;2.17;1.92;;;15.30;99.90;;;;;;5022046;28;20069;-82
2022/07/08 00:06:26;;;;;;;4.35;2.15;;;15.40;99.90;;;;;;5002638;28;20050;-83
2022/07/08 00:08:51;;;;;;;6.85;2.30;;;15.40;99.90;;;;;;5019174;28;20041;-83
2022/07/08 00:11:17;;;;;;;3.90;2.20;;;15.40;99.90;;;;;;5018303;28;20382;-83
2022/07/08 00:13:43;;;;;;;6.50;2.20;;;15.40;99.90;;;;;;4998813;28;20027;-83
2022/07/08 00:16:08;;;;;;;4.97;2.28;;;15.30;99.90;;;;;;5001730;28;20030;-83
2022/07/08 00:18:34;;;;;;;2.85;2.00;;;15.40;99.90;;;;;;4984732;28;20119;-83
2022/07/08 00:21:00;;;;;;;4.05;1.92;;;15.40;99.90;;;;;;5003227;28;20037;-83
2022/07/08 00:23:26;;;;;;;4.68;2.10;;;15.30;99.90;;;;;;5009236;28;20022;-83
2022/07/08 00:25:51;;;;;;;3.70;1.77;;;15.30;99.90;;;;;;5022215;28;20084;-83
2022/07/08 00:28:17;;;;;;;4.32;1.80;;;15.30;99.90;;;;;;5021879;28;20026;-83
2022/07/08 00:30:46;;;;;;;4.00;1.83;;;15.30;99.90;;;;;;5022229;28;20025;-84
2022/07/08 00:33:13;;;;;;;4.20;1.95;;;15.30;99.90;;;;;;5018223;28;20048;-83
2022/07/08 00:35:39;;;;;;;2.88;1.75;;;15.40;99.90;;;;;;5004532;28;20033;-83
2022/07/08 00:38:05;;;;;;;5.97;2.03;;;15.30;99.90;;;;;;5021915;28;20030;-83
2022/07/08 00:40:30;;;;;;;3.35;2.15;;;15.30;99.90;;;;;;5004353;28;20154;-83
2022/07/08 00:42:56;;;;;;;9.77;2.40;;;15.30;99.90;;;;;;5020920;28;20041;-83
2022/07/08 00:45:22;;;;;;;3.00;1.90;;;15.30;99.90;;;;;;5021906;28;20030;-83
2022/07/08 00:47:47;;;;;;;2.88;1.95;;;15.40;99.90;;;;;;5020490;28;20420;-83
2022/07/08 00:50:13;;;;;;;5.47;1.95;;;15.40;99.90;;;;;;5003649;28;20057;-83
2022/07/08 00:52:39;;;;;;;5.90;2.30;;;15.30;99.90;;;;;;5020977;28;20033;-83
2022/07/08 00:55:07;;;;;;;5.65;2.08;;;15.30;99.90;;;;;;5005432;28;20029;-83
2022/07/08 00:57:35;;;;;;;2.15;2.00;;;15.30;99.90;;;;;;5020908;28;20113;-83
2022/07/08 01:00:01;;;;;;;3.75;2.10;;;15.30;99.90;;;;;;5020952;28;20022;-83
2022/07/08 01:02:26;;;;;;;2.92;1.88;;;15.30;99.90;;;;;;5021143;28;20393;-83
2022/07/08 01:04:52;;;;;;;2.15;1.92;;;15.30;99.90;;;;;;5019513;28;20030;-82
2022/07/08 01:07:19;;;;;;;2.30;1.92;;;15.30;99.90;;;;;;5021186;28;20048;-83
2022/07/08 01:09:45;;;;;;;4.13;1.83;;;15.30;99.90;;;;;;5020476;28;20029;-82
2022/07/08 01:12:15;;;;;;;2.28;1.60;;;15.40;99.90;;;;;;5019805;28;20049;-83
2022/07/08 01:14:42;;;;;;;4.68;2.20;;;15.40;99.90;;;;;;4985266;28;20029;-83
2022/07/08 01:17:08;;;;;;;3.10;2.15;;;15.40;99.90;;;;;;5001390;28;20053;-83
2022/07/08 01:19:34;;;;;;;2.40;1.58;;;15.40;99.90;;;;;;5018320;28;20099;-82
2022/07/08 01:22:00;;;;;;;4.95;2.05;;;15.40;99.90;;;;;;4999404;28;20576;-83
2022/07/08 01:24:25;;;;;;;3.38;2.10;;;15.40;99.90;;;;;;4995931;28;20026;-84
2022/07/08 01:26:52;;;;;;;4.07;2.20;;;15.30;99.90;;;;;;5017201;28;20128;-83
2022/07/08 01:29:17;;;;;;;3.55;2.05;;;15.40;99.90;;;;;;5019609;28;20029;-82
2022/07/08 01:31:43;;;;;;;2.30;2.10;;;15.40;99.90;;;;;;5019669;28;20022;-83
2022/07/08 01:34:10;;;;;;;4.65;2.40;;;15.40;99.90;;;;;;5015708;28;20030;-83
2022/07/08 01:36:35;;;;;;;1.90;1.80;;;15.30;99.90;;;;;;4984710;28;20426;-83
2022/07/08 01:39:01;;;;;;;5.95;2.40;;;15.30;99.90;;;;;;5002274;28;20066;-82
2022/07/08 01:41:27;;;;;;;2.22;2.03;;;15.30;99.90;;;;;;5001825;28;20023;-84
2022/07/08 01:43:52;;;;;;;4.13;2.67;;;15.30;99.90;;;;;;5014836;28;20025;-83
2022/07/08 01:46:18;;;;;;;5.07;2.80;;;15.30;99.90;;;;;;5032076;28;20031;-83
2022/07/08 01:48:44;;;;;;;3.90;2.53;;;15.30;99.90;;;;;;5020198;28;20030;-83
2022/07/08 01:51:35;;;;;;;4.38;2.30;;;15.30;99.90;;;;;;5021166;28;20029;-82
2022/07/08 01:54:01;;;;;;;5.88;1.90;;;15.20;99.90;;;;;;5003994;28;20033;-83
2022/07/08 01:56:26;;;;;;;4.72;2.75;;;15.10;99.90;;;;;;5020585;28;20022;-82
2022/07/08 01:58:52;;;;;;;3.17;2.35;;;15.10;99.90;;;;;;5028645;28;20024;-83
2022/07/08 02:01:22;;;;;;;5.75;2.95;;;15.10;99.90;;;;;;5017891;28;20026;-83
2022/07/08 02:04:12;;;;;;;6.55;2.50;;;15.10;99.90;;;;;;4999475;28;20041;-83
2022/07/08 02:06:37;;;;;;;6.13;3.72;;;15.10;99.90;;;;;;4985666;28;20064;-82
2022/07/08 02:09:03;;;;;;;6.85;3.10;;;15.10;99.90;;;;;;5009438;28;20021;-82
2022/07/08 02:14:13;;;;;;;5.35;2.55;;;15.20;99.90;;;;;;5013583;28;20422;-83
2022/07/08 02:16:39;;;;;;;7.63;2.45;;;15.10;99.90;;;;;;5007864;28;20074;-82
2022/07/08 02:19:05;;;;;;;2.40;2.20;;;15.10;99.90;;;;;;4985052;28;20030;-83
2022/07/08 02:21:31;;;;;;;4.28;2.30;;;15.10;99.90;;;;;;5005400;28;20082;-83
2022/07/08 02:23:56;;;;;;;3.47;2.17;;;15.10;99.90;;;;;;5013008;28;20049;-83
2022/07/08 02:26:22;;;;;;;6.55;1.70;;;15.10;99.90;;;;;;5020329;28;20045;-83
2022/07/08 02:28:47;;;;;;;3.30;2.67;;;15.10;99.90;;;;;;5019684;28;20028;-82
2022/07/08 02:31:13;;;;;;;3.58;1.55;;;15.10;99.90;;;;;;5020520;28;20026;-82
2022/07/08 02:33:39;;;;;;;4.22;1.80;;;15.00;99.90;;;;;;5019412;28;20022;-82
2022/07/08 02:36:06;;;;;;;4.72;1.58;;;14.90;99.90;;;;;;5003388;28;20484;-83
2022/07/08 02:38:31;;;;;;;2.90;1.20;;;14.90;99.90;;;;;;5020497;28;20076;-83
2022/07/08 02:40:57;;;;;;;2.85;1.27;;;14.90;99.90;;;;;;5021418;28;20081;-83
2022/07/08 02:43:24;;;;;;;5.55;1.33;;;14.80;99.90;;;;;;5023458;28;20030;-84
2022/07/08 02:45:51;;;;;;;3.40;1.38;;;14.70;99.90;;;;;;4992571;28;20029;-83
2022/07/08 02:48:17;;;;;;;3.33;1.33;;;14.60;99.90;;;;;;4998287;28;20041;-83
2022/07/08 02:50:42;;;;;;;4.22;2.13;;;14.60;99.90;;;;;;5014467;28;20085;-84
2022/07/08 02:53:23;;;;;;;6.10;1.73;;;14.50;99.90;;;;;;5005520;28;20380;-82
2022/07/08 02:56:09;;;;;;;5.97;1.52;;;14.50;99.90;;;;;;5001425;28;20494;-83
2022/07/08 02:58:37;;;;;;;3.92;1.50;;;14.50;99.90;;;;;;5004531;28;20445;-84
2022/07/08 03:01:07;;;;;;;7.07;1.92;;;14.50;99.90;;;;;;5022758;28;20061;-83
2022/07/08 03:03:32;;;;;;;5.90;1.50;;;14.40;99.90;;;;;;4992058;28;20106;-82
2022/07/08 03:06:03;;;;;;;3.83;1.70;;;14.30;99.90;;;;;;5031551;28;20030;-81
2022/07/08 03:08:28;;;;;;;5.72;1.77;;;14.40;99.90;;;;;;5035873;28;20036;-82
2022/07/08 03:10:54;;;;;;;6.72;1.52;;;14.30;99.90;;;;;;5039386;28;20029;-80
2022/07/08 03:13:19;;;;;;;7.20;1.52;;;14.30;99.90;;;;;;5053143;28;20029;-81
2022/07/08 03:16:22;;;;;;;5.93;1.08;;;14.20;99.90;;;;;;5032383;28;20025;-81
2022/07/08 03:18:48;;;;;;;;;;;14.10;99.90;;;;;;5001967;28;20054;-81
2022/07/08 03:21:14;;;;;;;2.28;0.98;;;14.10;98.30;;;;;;5020536;28;19913;-82
2022/07/08 03:23:39;;;;;;;2.83;1.00;;;14.10;97.60;;;;;;5020618;28;20033;-82
2022/07/08 03:26:05;;;;;;;2.60;0.95;;;14.00;98.00;;;;;;5018719;28;20026;-81
2022/07/08 03:28:31;;;;;;;5.30;1.38;;;14.00;96.60;;;;;;5002225;28;20098;-82
2022/07/08 03:30:57;;;;;;;4.78;0.90;;;14.00;96.90;;;;;;5018538;28;20698;-82
2022/07/08 03:33:22;;;;;;;4.03;1.25;;;13.90;96.40;;;;;;5018482;28;20026;-82
2022/07/08 03:35:49;;;;;;;8.63;1.67;;;13.90;96.40;;;;;;5016902;28;20022;-81
2022/07/08 03:38:15;;;;;;;7.22;1.38;;;13.90;96.60;;;;;;5017981;28;20494;-83
2022/07/08 03:43:24;;;;;;;5.68;1.30;;;13.90;96.90;;;;;;5028066;28;20045;-83
2022/07/08 03:45:50;;;;;;;7.53;1.40;;;13.90;96.40;;;;;;5018534;28;20030;-84
2022/07/08 03:48:16;;;;;;;4.35;1.00;;;13.90;96.30;;;;;;5019412;28;20026;-84
2022/07/08 03:50:44;;;;;;;5.45;1.00;;;13.90;96.10;;;;;;5025553;28;20042;-83
2022/07/08 03:53:09;;;;;;;4.35;1.10;;;14.00;96.00;;;;;;5025234;28;20049;-82
2022/07/08 03:55:35;;;;;;;7.13;1.52;;;13.90;96.20;;;;;;5025725;28;20029;-83
2022/07/08 03:58:01;;;;;;;6.65;1.30;;;13.90;95.40;;;;;;5024662;28;20132;-82
2022/07/08 04:00:26;;;;;;;4.55;1.38;;;13.90;95.90;;;;;;5025405;28;20078;-83
2022/07/08 04:02:52;;;;;;;3.53;1.10;;;13.90;95.90;;;;;;5025132;28;20022;-83
2022/07/08 04:05:18;;;;;;;2.42;1.20;;;13.90;95.90;;;;;;5025028;28;20434;-82
2022/07/08 04:07:43;;;;;;;6.32;1.55;;;13.90;95.10;;;;;;4995615;28;20030;-82
2022/07/08 04:10:09;;;;;;;4.35;1.05;;;13.90;94.90;;;;;;5005653;28;20033;-83
2022/07/08 04:12:35;;;;;;;5.50;1.58;;;13.90;94.60;;;;;;5005302;28;20026;-83
2022/07/08 04:15:01;;;;;;;2.78;1.05;;;13.90;94.60;;;;;;5004847;28;20018;-82
2022/07/08 04:17:27;;;;;;;2.03;1.00;;;13.90;94.30;;;;;;5012213;28;20359;-82
2022/07/08 04:19:53;;;;;;;7.22;1.63;;;13.90;94.60;;;;;;5006963;28;20109;-83
2022/07/08 04:22:18;;;;;;;7.97;1.27;;;13.90;95.00;;;;;;5025057;28;20105;-82
2022/07/08 04:24:44;;;;;;;6.13;2.08;;;14.00;94.90;;;;;;5024867;28;20453;-82
2022/07/08 04:27:09;;;;;;;8.77;1.45;;;13.90;95.10;;;;;;5024118;28;20029;-83
2022/07/08 04:29:35;;;;;;;3.60;1.05;;;13.90;95.10;;;;;;5012987;28;20077;-83
2022/07/08 04:32:01;;;;;;;7.15;2.05;;;13.90;94.70;;;;;;5025702;28;20022;-81
2022/07/08 04:34:26;;;;;;;5.60;1.58;;;13.90;94.80;;;;;;5024829;28;20494;-81
2022/07/08 04:36:52;;;;;;;5.18;1.90;;;13.90;94.60;;;;;;5025291;28;20029;-82
2022/07/08 04:39:18;;;;;;;6.97;1.20;;;13.90;93.80;;;;;;4995547;28;20037;-82
2022/07/08 04:41:46;;;;;;;7.50;1.08;;;13.90;93.50;;;;;;5013346;28;20029;-83
2022/07/08 04:44:12;;;;;;;4.43;1.00;;;14.00;93.30;;;;;;5014773;28;20033;-82
2022/07/08 04:46:37;;;;;;;4.97;1.20;;;14.00;93.20;;;;;;5016558;28;20034;-82
2022/07/08 04:49:03;;;;;;;6.05;1.20;;;13.90;93.20;;;;;;5033745;28;20041;-80
2022/07/08 04:51:29;;;;;;;2.90;1.33;;;13.90;93.00;;;;;;5035275;28;20030;-81
2022/07/08 04:53:55;;;;;;;7.20;1.70;;;13.90;93.10;;;;;;5037246;28;20026;-83
2022/07/08 04:56:21;;;;;;;6.38;1.60;;;13.80;92.80;;;;;;5033719;28;20033;-81
2022/07/08 04:58:46;;;;;;;7.43;1.70;;;13.80;92.70;;;;;;5038939;28;20013;-81
2022/07/08 05:01:13;;;;;;;5.68;1.30;;;13.90;92.10;;;;;;5026732;28;20032;-80
2022/07/08 05:03:39;;;;;;;3.22;1.15;;;14.10;90.80;;;;;;5028237;28;20026;-82
2022/07/08 05:06:05;;;;;;;5.65;1.05;;;14.20;91.20;;;;;;5012060;28;20038;-81
2022/07/08 05:08:31;;;;;;;7.68;2.10;;;14.30;90.40;;;;;;5000406;28;20022;-81
2022/07/08 05:10:57;;;;;;;5.40;1.42;;;14.40;89.10;;;;;;4999962;28;20542;-82
2022/07/08 05:13:22;;;;;;;3.10;0.70;;;14.70;90.10;;;;;;5018467;28;20022;-82
2022/07/08 05:15:48;;;;;;;7.65;1.60;;;15.50;89.90;;;;;;5018640;28;20026;-82
2022/07/08 05:18:14;;;;;;;6.05;1.85;;;17.10;80.40;;;;;;5019840;28;20064;-82
2022/07/08 05:20:39;;;;;;;4.88;1.10;;;17.30;77.40;;;;;;5007650;28;20041;-81
2022/07/08 05:23:05;;;;;;;7.65;1.48;;;17.30;74.00;;;;;;5019558;28;20022;-83
2022/07/08 05:25:31;;;;;;;4.45;1.20;;;16.90;74.40;;;;;;5030072;28;20069;-82
2022/07/08 05:27:56;;;;;;;4.88;0.80;;;16.40;76.30;;;;;;5027950;28;20109;-84
2022/07/08 05:30:22;;;;;;;9.35;1.30;;;16.00;78.80;;;;;;5028945;28;20025;-82
2022/07/08 05:32:48;;;;;;;4.07;1.30;;;15.70;78.60;;;;;;5013507;28;20022;-81
2022/07/08 05:35:14;;;;;;;4.07;1.10;;;15.50;80.10;;;;;;5019258;28;20022;-82
2022/07/08 05:37:40;;;;;;;7.55;1.13;;;15.50;82.00;;;;;;5036965;28;20049;-81
2022/07/08 05:40:11;;;;;;;5.63;1.45;;;15.50;80.90;;;;;;5027805;28;20022;-81
2022/07/08 05:42:37;;;;;;;6.88;1.42;;;15.40;81.50;;;;;;5021320;28;20135;-81
2022/07/08 05:45:04;;;;;;;4.10;1.13;;;15.70;80.90;;;;;;5020488;28;20433;-81
2022/07/08 05:47:29;;;;;;;5.93;1.30;;;16.40;80.00;;;;;;5020085;28;20029;-81
2022/07/08 05:49:55;;;;;;;2.63;1.00;;;17.90;77.40;;;;;;5019596;28;20033;-82
2022/07/08 05:52:21;;;;;;;5.90;1.00;;;20.90;71.40;;;;;;5020151;28;20029;-82
2022/07/08 05:54:47;;;;;;;7.00;1.60;;;23.70;58.30;;;;;;5019322;28;20018;-82
2022/07/08 05:57:13;;;;;;;6.78;1.77;;;25.20;51.20;;;;;;5018630;28;20025;-82
2022/07/08 05:59:39;;;;;;;6.05;1.65;;;25.50;49.20;;;;;;5001381;28;20029;-83
2022/07/08 06:02:05;;;;;;;8.27;1.50;;;26.20;48.60;;;;;;5014971;28;20395;-82
2022/07/08 06:04:31;;;;;;;5.88;1.23;;;27.10;46.10;;;;;;5019201;28;20116;-82
2022/07/08 06:06:57;;;;;;;4.20;0.98;;;26.80;45.50;;;;;;5025175;28;20041;-82
2022/07/08 06:09:22;;;;;;;2.13;0.85;;;26.10;46.30;;;;;;5009915;28;20046;-82
2022/07/08 06:11:48;;;;;;;2.95;0.93;;;26.50;48.20;;;;;;5002614;28;20105;-83
2022/07/08 06:14:14;;;;;;;2.92;1.02;;;28.10;45.90;;;;;;5004407;28;20077;-82
2022/07/08 06:16:40;;;;;;;5.15;1.92;;;27.80;42.80;;;;;;5015241;28;20018;-83
2022/07/08 06:19:05;;;;;;;3.97;1.20;;;27.50;43.70;;;;;;5007829;28;20034;-81
2022/07/08 06:21:31;;;;;;;4.85;1.30;;;25.60;44.40;;;;;;5049062;28;20025;-83
2022/07/08 06:23:58;;;;;;;6.07;1.27;;;24.20;47.80;;;;;;5045693;28;20258;-83
2022/07/08 06:26:24;;;;;;;5.07;1.70;;;25.10;48.70;;;;;;5037604;28;20034;-81
2022/07/08 06:28:50;;;;;;;6.13;1.48;;;25.20;45.90;;;;;;5035190;28;20021;-82
2022/07/08 06:31:33;;;;;;;3.00;0.98;;;25.80;46.60;;;;;;5036384;28;20041;-83
2022/07/08 06:33:58;;;;;;;4.18;1.00;;;27.30;44.80;;;;;;5015721;28;20010;-81
2022/07/08 06:36:25;;;;;;;3.17;1.17;;;28.40;43.40;;;;;;5004478;28;20095;-82
2022/07/08 06:38:57;;;;;;;3.78;0.98;;;28.10;41.00;;;;;;5016602;28;20018;-82
2022/07/08 06:41:23;;;;;;;;;;;27.30;41.60;;;;;;5017552;28;20037;-81
2022/07/08 06:43:48;;;;;;;3.97;1.15;;;26.60;43.00;;;;;;5015750;28;19921;-82
2022/07/08 06:46:14;;;;;;;4.45;1.42;;;26.80;43.20;;;;;;5021205;28;20038;-82
2022/07/08 06:48:40;;;;;;;4.00;1.20;;;27.50;43.20;;;;;;5014123;28;20118;-82
2022/07/08 06:51:06;;;;;;;4.72;1.27;;;28.40;42.00;;;;;;5031771;28;20072;-82
2022/07/08 06:54:34;;;;;;;2.85;1.00;;;28.40;41.10;;;;;;5017367;28;20029;-82
2022/07/08 06:56:18;;;;;;;4.75;2.28;;;26.50;42.10;;;;;;5019363;28;20018;-84
2022/07/08 06:58:44;;;;;;;9.73;1.80;;;25.90;43.90;;;;;;5019738;28;20021;-83
2022/07/08 07:01:11;;;;;;;7.53;2.40;;;26.00;44.10;;;;;;5037012;28;20018;-83
2022/07/08 07:03:37;;;;;;;1.90;1.17;;;26.30;44.80;;;;;;5036500;28;20029;-84
2022/07/08 07:06:03;;;;;;;8.40;1.88;;;27.30;44.30;;;;;;5012487;28;20042;-83
2022/07/08 07:08:35;;;;;;;3.42;1.08;;;26.40;42.00;;;;;;4998737;28;20027;-81
2022/07/08 07:11:03;;;;;;;2.80;1.25;;;24.80;44.40;;;;;;4990436;28;20026;-82
2022/07/08 07:13:29;;;;;;;6.50;1.98;;;23.50;46.20;;;;;;5005151;28;20073;-82
2022/07/08 07:15:55;;;;;;;6.20;1.85;;;22.60;47.80;;;;;;5005582;28;20085;-82
2022/07/08 07:18:21;;;;;;;3.92;1.52;;;21.40;49.90;;;;;;5007140;28;20030;-83
2022/07/08 07:20:47;;;;;;;4.80;1.42;;;21.50;51.00;;;;;;4990952;28;20049;-82
2022/07/08 07:23:12;;;;;;;4.70;1.52;;;21.00;51.20;;;;;;4993135;28;20041;-83
2022/07/08 07:25:44;;;;;;;2.55;0.80;;;19.90;53.30;;;;;;5028011;28;20068;-85
2022/07/08 07:29:02;;;;;;;2.35;0.80;;;18.80;56.10;;;;;;5029313;28;20054;-84
2022/07/08 07:31:28;;;;;;;2.53;1.00;;;18.50;57.90;;;;;;5036524;28;20021;-85
2022/07/08 07:33:54;;;;;;;3.72;1.45;;;18.30;57.60;;;;;;5023661;28;20112;-84
2022/07/08 07:36:20;;;;;;;6.38;1.50;;;18.10;58.40;;;;;;5020507;28;20778;-85
2022/07/08 07:38:46;;;;;;;4.50;1.50;;;18.00;59.60;;;;;;5016710;28;20030;-83
2022/07/08 07:41:11;;;;;;;5.22;1.35;;;17.90;60.10;;;;;;5018171;28;20025;-83
2022/07/08 07:43:40;;;;;;;12.18;2.67;;;17.70;60.20;;;;;;5021411;28;20041;-84
2022/07/08 07:46:16;;;;;;;5.25;1.70;;;17.60;61.10;;;;;;5000299;28;20503;-83
2022/07/08 07:49:32;;;;;;;4.78;1.77;;;17.40;62.40;;;;;;5016858;28;20034;-85
2022/07/08 07:52:32;;;;;;;2.58;1.10;;;17.20;63.60;;;;;;5004553;28;20038;-84
2022/07/08 07:55:30;;;;;;;2.10;0.70;;;17.20;64.20;;;;;;5017283;28;20037;-85
2022/07/08 08:23:19;;;;;;;4.85;1.45;;;17.00;66.30;;;;;;4957826;29;20038;-85
2022/07/08 08:37:10;;;;;;;;;;;;;;;;;;;;;
2022/07/08 08:40:27;;;;;;;8.90;1.60;;;16.80;68.20;;;;;;4808312;29;20070;-88
2022/07/08 08:53:16;;;;;;;6.88;1.23;;;17.30;67.40;;;;;;5034029;28;20061;-89
2022/07/08 08:55:50;;;;;;;5.45;1.40;;;17.40;67.10;;;;;;5012431;28;20447;-87
2022/07/08 08:58:19;;;;;;;3.70;1.55;;;17.50;66.80;;;;;;4982266;28;20031;-89
2022/07/08 09:00:45;;;;;;;3.85;1.48;;;17.40;66.30;;;;;;4981421;28;20118;-89
2022/07/08 09:03:17;;;;;;;4.30;1.48;;;17.40;67.00;;;;;;5015594;28;20083;-88
2022/07/08 09:05:43;;;;;;;5.03;1.77;;;17.50;67.60;;;;;;5000218;28;20018;-86
2022/07/08 09:08:14;;;;;;;3.15;1.70;;;17.80;66.20;;;;;;5016276;28;20376;-85
2022/07/08 09:10:44;;;;;;;6.97;1.80;;;18.10;65.70;;;;;;5017025;28;20022;-86
2022/07/08 09:13:19;;;;;;;6.53;2.53;;;18.50;63.70;;;;;;5016628;28;20365;-84
2022/07/08 09:15:57;;;;;;;4.72;2.22;;;18.50;63.20;;;;;;5017649;28;20019;-88
2022/07/08 09:18:38;;;;;;;5.95;1.90;;;18.50;63.20;;;;;;4982271;28;20051;-86
2022/07/08 09:21:20;;;;;;;3.92;1.13;;;18.30;64.50;;;;;;4982026;28;20035;-88
2022/07/08 09:23:58;;;;;;;4.28;1.10;;;18.00;64.70;;;;;;4981588;28;20062;-87
2022/07/08 09:26:28;;;;;;;5.25;1.30;;;17.70;67.60;;;;;;4994680;28;20244;-86
2022/07/08 09:29:07;;;;;;;6.25;1.58;;;17.70;66.70;;;;;;4997361;28;20093;-85
2022/07/08 09:31:50;;;;;;;8.23;2.08;;;17.90;68.20;;;;;;4998280;28;20085;-89
2022/07/08 09:34:35;;;;;;;6.57;1.73;;;18.20;65.70;;;;;;4980622;28;20031;-87
2022/07/08 09:37:13;;;;;;;5.43;1.75;;;18.50;66.90;;;;;;5004123;28;20046;-84
2022/07/08 09:39:42;;;;;;;3.83;1.40;;;18.70;64.70;;;;;;4946403;29;20444;-85
2022/07/08 09:42:25;;;;;;;3.88;1.45;;;19.10;66.60;;;;;;4953793;29;20102;-87
2022/07/08 09:44:52;;;;;;;6.18;1.25;;;19.60;65.00;;;;;;4963587;29;20036;-85
2022/07/08 09:47:18;;;;;;;8.85;1.70;;;19.60;62.00;;;;;;4962746;28;20028;-84
2022/07/08 09:49:45;;;;;;;4.68;1.65;;;19.60;61.10;;;;;;4961895;28;20058;-85
2022/07/08 09:52:19;;;;;;;4.57;2.03;;;19.70;62.60;;;;;;4967521;28;20034;-85
2022/07/08 09:54:44;;;;;;;4.68;1.65;;;19.90;61.10;;;;;;4987621;28;20034;-85
2022/07/08 09:57:11;;;;;;;16.15;1.85;;;20.00;61.10;;;;;;5003150;28;20041;-85
2022/07/08 09:59:38;;;;;;;7.95;1.60;;;20.30;58.70;;;;;;4974067;28;20031;-84
2022/07/08 10:02:04;;;;;;;4.18;1.52;;;20.70;59.50;;;;;;4974827;28;20027;-83
2022/07/08 10:04:30;;;;;;;6.30;1.38;;;21.10;58.60;;;;;;4997969;28;20074;-83
2022/07/08 10:06:57;;;;;;;4.28;1.20;;;21.30;62.40;;;;;;4989806;28;20084;-83
2022/07/08 10:09:24;;;;;;;4.47;1.25;;;21.00;56.50;;;;;;4996360;28;20030;-82
2022/07/08 10:11:51;;;;;;;4.03;1.65;;;20.70;57.60;;;;;;4972476;28;20035;-83
2022/07/08 10:14:18;;;;;;;6.82;1.48;;;20.70;56.00;;;;;;4967050;29;20027;-84
2022/07/08 10:16:46;;;;;;;4.50;1.58;;;20.70;55.50;;;;;;4967041;28;20057;-83
2022/07/08 10:19:17;;;;;;;3.53;1.27;;;20.60;55.70;;;;;;4963481;28;20432;-83
2022/07/08 10:21:50;;;;;;;3.80;1.35;;;20.50;56.00;;;;;;4942231;28;20074;-83
2022/07/08 10:24:22;;;;;;;4.50;1.52;;;20.40;57.10;;;;;;4943044;29;20050;-84
2022/07/08 10:26:48;;;;;;;1.63;0.88;;;20.80;56.90;;;;;;4962026;28;20423;-83
2022/07/08 10:29:29;;;;;;;4.30;1.60;;;21.00;56.20;;;;;;4986767;28;20038;-83
2022/07/08 10:31:55;;;;;;;5.32;1.50;;;21.10;54.40;;;;;;4981692;28;20026;-83
2022/07/08 10:34:28;;;;;;;2.88;1.13;;;20.90;55.00;;;;;;4976741;28;20034;-84
2022/07/08 10:36:54;;;;;;;4.43;1.40;;;20.90;55.80;;;;;;4948429;29;20027;-84
2022/07/08 10:39:25;;;;;;;3.05;1.42;;;20.70;54.40;;;;;;4946592;29;20031;-83
2022/07/08 10:42:03;;;;;;;2.95;1.38;;;20.30;55.70;;;;;;4964566;29;20027;-83
2022/07/08 10:44:52;;;;;;;3.28;1.17;;;20.10;56.90;;;;;;4944276;29;20027;-84
2022/07/08 10:47:31;;;;;;;1.90;1.00;;;20.60;57.30;;;;;;4966004;29;20083;-84
2022/07/08 10:50:08;;;;;;;5.00;1.45;;;21.20;55.40;;;;;;4951911;28;20102;-83
2022/07/08 10:52:40;;;;;;;5.68;1.42;;;21.30;54.10;;;;;;4992871;28;20046;-84
2022/07/08 10:55:13;;;;;;;2.45;1.27;;;21.00;53.90;;;;;;4982782;28;20022;-83
2022/07/08 10:57:55;;;;;;;9.93;1.60;;;20.80;53.90;;;;;;4989262;28;20036;-84
2022/07/08 11:00:22;;;;;;;5.20;1.50;;;20.60;55.30;;;;;;4949868;29;20034;-83
2022/07/08 11:02:48;;;;;;;6.63;2.75;;;20.30;54.90;;;;;;4951948;28;20336;-84
2022/07/08 11:05:33;;;;;;;6.75;1.60;;;20.10;55.70;;;;;;4979892;28;20252;-84
2022/07/08 11:08:20;;;;;;;6.95;1.90;;;20.10;55.80;;;;;;4980171;28;20030;-84
2022/07/08 11:10:54;;;;;;;4.47;1.20;;;20.50;54.40;;;;;;4980344;28;20047;-83
2022/07/08 11:13:20;;;;;;;3.00;1.30;;;20.50;54.30;;;;;;4981882;28;20022;-84
2022/07/08 11:15:46;;;;;;;9.88;1.95;;;20.30;54.40;;;;;;4980681;28;20034;-84
2022/07/08 11:18:51;;;;;;;12.20;2.30;;;20.20;53.70;;;;;;4985064;28;20029;-85
2022/07/08 11:21:16;;;;;;;4.10;1.40;;;20.40;54.30;;;;;;4909372;29;20043;-84
2022/07/08 11:24:17;;;;;;;2.78;1.10;;;20.90;52.90;;;;;;5257949;23;20062;-85
2022/07/08 11:26:43;;;;;;;4.10;1.52;;;21.40;51.90;;;;;;5000231;28;20097;-85
2022/07/08 11:29:20;;;;;;;4.13;1.38;;;21.60;51.90;;;;;;4998672;28;20068;-84
2022/07/08 11:32:12;;;;;;;5.32;1.73;;;21.40;52.50;;;;;;4999936;28;20471;-85
2022/07/08 11:34:41;;;;;;;3.35;1.20;;;21.00;53.70;;;;;;4983090;28;20428;-85
2022/07/08 11:38:26;;;;;;;4.57;1.90;;;21.00;53.30;;;;;;5010555;28;20057;-83
2022/07/08 11:41:04;;;;;;;2.92;1.40;;;20.90;52.90;;;;;;4960112;28;20399;-84
2022/07/08 11:47:20;;;;;;;6.47;1.63;;;20.50;53.90;;;;;;4950683;29;20056;-86
2022/07/08 11:50:21;;;;;;;5.85;1.23;;;20.70;53.30;;;;;;4947026;28;20567;-85
2022/07/08 11:52:52;;;;;;;5.88;1.20;;;21.20;52.90;;;;;;4996980;28;20333;-84
2022/07/08 11:55:20;;;;;;;5.65;1.58;;;21.30;51.50;;;;;;4983786;28;20021;-84
2022/07/08 12:00:32;;;;;;;5.35;1.42;;;21.20;51.00;;;;;;5068778;23;20046;-82
2022/07/08 12:02:58;;;;;;;5.13;1.33;;;21.20;51.70;;;;;;4986493;28;20034;-83
2022/07/08 12:05:23;;;;;;;3.38;1.45;;;21.20;51.90;;;;;;4980394;28;20018;-85
2022/07/08 12:07:49;;;;;;;9.10;1.70;;;21.20;51.80;;;;;;4996968;28;20042;-84
2022/07/08 12:10:21;;;;;;;8.60;2.17;;;21.10;51.80;;;;;;4990235;28;20458;-83
2022/07/08 12:12:56;;;;;;;4.30;1.35;;;21.10;52.60;;;;;;4981469;28;20365;-84
2022/07/08 12:15:22;;;;;;;2.10;1.20;;;21.30;51.90;;;;;;4964097;28;20098;-84
2022/07/08 12:17:58;;;;;;;7.97;1.83;;;21.30;52.30;;;;;;4978342;28;20053;-82
2022/07/08 12:20:38;;;;;;;3.30;1.27;;;21.90;51.30;;;;;;4988906;28;20440;-83
2022/07/08 12:23:05;;;;;;;4.13;1.63;;;22.50;49.90;;;;;;4981499;28;20030;-82
2022/07/08 12:25:48;;;;;;;3.45;1.23;;;22.80;48.10;;;;;;4970626;28;20027;-83
2022/07/08 12:28:20;;;;;;;4.30;1.05;;;22.40;48.70;;;;;;4981078;28;20526;-82
2022/07/08 12:30:45;;;;;;;5.80;1.45;;;22.10;49.90;;;;;;4963099;28;20062;-83
2022/07/08 12:33:11;;;;;;;3.75;1.70;;;22.20;49.20;;;;;;4967174;28;20038;-82
2022/07/08 12:35:37;;;;;;;2.97;1.00;;;22.30;49.70;;;;;;4994576;28;20079;-85
2022/07/08 12:38:10;;;;;;;2.70;1.10;;;22.00;49.40;;;;;;4987047;28;20504;-84
2022/07/08 12:41:22;;;;;;;3.05;1.20;;;21.40;50.30;;;;;;4981086;28;20035;-82
2022/07/08 12:43:48;;;;;;;2.67;1.10;;;21.10;51.70;;;;;;4976214;28;20038;-84
2022/07/08 12:46:13;;;;;;;5.35;1.60;;;21.60;51.40;;;;;;4996907;28;20031;-84
2022/07/08 12:48:45;;;;;;;4.55;1.85;;;21.70;50.10;;;;;;4964667;28;20031;-83
2022/07/08 12:51:10;;;;;;;5.65;1.30;;;21.40;50.40;;;;;;4980824;28;20039;-81
2022/07/08 12:53:36;;;;;;;4.00;1.20;;;21.50;51.30;;;;;;4996518;28;20085;-83
2022/07/08 12:56:02;;;;;;;3.42;0.95;;;21.90;50.90;;;;;;4977956;28;20023;-81
2022/07/08 12:58:28;;;;;;;3.70;1.27;;;21.70;50.80;;;;;;4980902;28;20042;-80
2022/07/08 13:00:53;;;;;;;2.75;1.10;;;21.70;50.00;;;;;;4978723;28;20031;-81
2022/07/08 13:03:19;;;;;;;4.47;1.10;;;21.70;51.00;;;;;;4979138;28;20102;-79
2022/07/08 13:05:45;;;;;;;2.45;1.00;;;21.60;49.60;;;;;;4977995;28;20093;-80
2022/07/08 13:08:11;;;;;;;3.20;1.10;;;21.40;49.80;;;;;;4978466;28;20447;-80
2022/07/08 13:10:37;;;;;;;5.75;1.52;;;21.60;50.20;;;;;;4961275;28;20057;-80
2022/07/08 13:13:06;;;;;;;1.52;0.93;;;22.00;50.30;;;;;;4979185;28;20747;-79
2022/07/08 13:15:33;;;;;;;3.17;1.10;;;22.40;49.40;;;;;;4977606;28;20071;-81
2022/07/08 13:17:59;;;;;;;3.25;1.25;;;22.90;48.40;;;;;;4988500;28;20472;-80
2022/07/08 13:20:25;;;;;;;4.03;1.08;;;23.20;47.80;;;;;;4985456;28;20049;-80
2022/07/08 13:22:51;;;;;;;1.42;0.95;;;23.20;46.70;;;;;;4990280;28;20030;-81
2022/07/08 13:25:17;;;;;;;1.75;1.15;;;23.20;47.20;;;;;;4984118;28;20038;-80
2022/07/08 13:27:44;;;;;;;3.67;1.10;;;23.10;47.50;;;;;;4991480;28;20030;-81
2022/07/08 13:30:11;;;;;;;1.58;1.00;;;23.00;47.40;;;;;;4984383;28;20042;-79
2022/07/08 13:32:39;;;;;;;4.90;1.23;;;22.90;47.70;;;;;;4965781;28;20019;-80
2022/07/08 13:35:28;;;;;;;1.48;1.08;;;23.00;47.00;;;;;;4982261;28;20057;-80
2022/07/08 13:38:03;;;;;;;2.17;1.08;;;22.60;47.70;;;;;;4959671;28;20046;-79
2022/07/08 13:40:29;;;;;;;5.00;1.20;;;22.20;48.20;;;;;;4930339;28;20050;-80
2022/07/08 13:43:30;;;;;;;5.57;1.40;;;21.90;49.10;;;;;;4979286;28;20031;-81
2022/07/08 13:46:06;;;;;;;3.15;0.93;;;22.10;49.40;;;;;;4973507;28;20038;-80
2022/07/08 13:48:35;;;;;;;1.45;0.80;;;22.40;49.00;;;;;;4978333;28;20067;-79
2022/07/08 13:54:24;;;;;;;2.17;1.05;;;22.70;48.20;;;;;;4961767;28;20038;-80
2022/07/08 13:56:50;;;;;;;3.80;1.13;;;22.50;48.40;;;;;;4968391;28;20349;-80
2022/07/08 13:59:15;;;;;;;6.40;1.65;;;22.00;48.10;;;;;;4978271;28;20039;-81
2022/07/08 14:01:41;;;;;;;2.90;1.42;;;21.60;49.40;;;;;;4977664;28;20026;-80
2022/07/08 14:04:07;;;;;;;2.78;1.17;;;21.80;49.50;;;;;;4977351;28;20498;-81